Time;durP1;ratioP1;P1;durP2;ratioP2;P2;SDS_P1;SDS_P2;PMS_P1;PMS_P2;Temp;Humidity;BMP_temperature;BMP_pressure;BME280_temperature;BME280_humidity;BME280_pressure;Samples;Min_cycle;Max_cycle;Signal;HPM_P1;HPM_P2
2023/12/20 00:00:23;;;;;;;;;;;3.40;99.90;;;2.53;100.00;97656.59;5017136;28;1413;-69
2023/12/20 00:02:49;;;;;;;;;;;3.40;99.90;;;2.53;100.00;97662.56;5018035;28;1475;-70
2023/12/20 00:05:16;;;;;;;;;;;3.40;99.90;;;2.54;100.00;97668.56;5016491;28;1416;-70
2023/12/20 00:07:43;;;;;;;;;;;3.50;99.90;;;2.59;100.00;97667.63;5020655;28;1415;-71
2023/12/20 00:10:12;;;;;;;;;;;3.40;99.90;;;2.66;100.00;97666.69;5015966;28;1393;-70
2023/12/20 00:12:40;;;;;;;;;;;3.40;99.90;;;2.56;100.00;97675.34;5015025;28;1496;-70
2023/12/20 00:15:08;;;;;;;;;;;3.40;99.90;;;2.73;100.00;97677.75;5015772;28;1910;-69
2023/12/20 00:17:35;;;;;;;;;;;3.50;99.90;;;2.58;100.00;97675.31;5019457;28;3085;-69
2023/12/20 00:20:02;;;;;;;;;;;3.50;99.90;;;2.61;100.00;97668.47;5020123;28;1499;-70
2023/12/20 00:22:29;;;;;;;;;;;3.50;99.90;;;2.64;100.00;97680.41;5016527;28;1483;-70
2023/12/20 00:24:56;;;;;;;;;;;3.50;99.90;;;2.68;100.00;97671.81;5020152;28;1408;-69
2023/12/20 00:27:23;;;;;;;;;;;3.50;99.90;;;2.64;100.00;97658.19;5020433;28;1749;-70
2023/12/20 00:29:50;;;;;;;;;;;3.40;99.90;;;2.71;100.00;97684.59;5017539;28;2115;-69
2023/12/20 00:32:17;;;;;;;;;;;3.50;99.90;;;2.68;100.00;97672.66;5015594;28;1408;-68
2023/12/20 00:34:44;;;;;;;;;;;3.40;99.90;;;2.64;100.00;97670.16;5021816;28;1977;-70
2023/12/20 00:37:10;;;;;;;;;;;3.50;99.90;;;2.67;100.00;97670.97;5017929;28;1411;-70
2023/12/20 00:39:37;;;;;;;;;;;3.50;99.90;;;2.63;100.00;97671.88;5019734;28;1428;-68
2023/12/20 00:42:04;;;;;;;;;;;3.50;99.90;;;2.69;100.00;97674.38;5018967;28;1470;-70
2023/12/20 00:44:31;;;;;;;;;;;3.50;99.90;;;2.71;100.00;97682.91;5018352;28;2032;-69
2023/12/20 00:46:58;;;;;;;;;;;3.50;99.90;;;2.72;100.00;97668.38;5021156;28;1400;-69
2023/12/20 00:49:25;;;;;;;;;;;3.50;99.90;;;2.75;100.00;97664.94;5019863;28;1443;-69
2023/12/20 00:51:52;;;;;;;;;;;3.50;99.90;;;2.78;100.00;97670.00;5018820;28;1444;-69
2023/12/20 00:54:19;;;;;;;;;;;3.50;99.90;;;2.66;100.00;97664.13;5021139;28;1399;-69
2023/12/20 00:56:46;;;;;;;;;;;3.50;99.90;;;2.71;100.00;97654.72;5035391;28;5254;-69
2023/12/20 00:59:14;;;;;;;;;;;3.50;99.90;;;2.76;100.00;97662.34;5021749;28;3175;-69
2023/12/20 01:01:41;;;;;;;;;;;3.50;99.90;;;2.71;100.00;97651.28;5021674;28;1392;-70
2023/12/20 01:04:08;;;;;;;;;;;3.60;99.90;;;2.72;100.00;97643.59;5020132;28;1592;-69
2023/12/20 01:06:35;;;;;;;;;;;3.60;99.90;;;2.73;100.00;97657.25;5020185;28;1416;-69
2023/12/20 01:09:02;;;;;;;;;;;3.60;99.90;;;2.76;100.00;97653.78;5017771;28;1551;-70
2023/12/20 01:11:29;;;;;;;;;;;3.60;99.90;;;2.77;100.00;97660.63;5022529;28;1443;-70
2023/12/20 01:13:56;;;;;;;;;;;3.60;99.90;;;2.69;100.00;97655.56;5020966;28;2019;-69
2023/12/20 01:16:23;;;;;;;;;;;3.60;99.90;;;2.79;100.00;97656.34;5020780;28;2009;-69
2023/12/20 01:18:50;;;;;;;;;;;3.60;99.90;;;2.71;100.00;97661.53;5019909;28;1431;-69
2023/12/20 01:21:16;;;;;;;;;;;3.60;99.90;;;2.75;100.00;97654.69;5019724;28;1436;-70
2023/12/20 01:23:43;;;;;;;;;;;3.60;99.90;;;2.78;100.00;97652.06;5020734;28;1687;-69
2023/12/20 01:26:10;;;;;;;;;;;3.60;99.90;;;2.81;100.00;97654.63;5018855;28;2031;-71
2023/12/20 01:28:37;;;;;;;;;;;3.60;99.90;;;2.83;100.00;97645.16;5017281;28;1515;-70
2023/12/20 01:31:04;;;;;;;;;;;3.60;99.90;;;2.75;100.00;97637.56;5018220;28;1679;-69
2023/12/20 01:33:31;;;;;;;;;;;3.60;99.90;;;2.80;100.00;97632.41;5017845;28;1464;-70
2023/12/20 01:35:58;;;;;;;;;;;3.70;99.90;;;2.83;100.00;97625.53;5020134;28;1918;-70
2023/12/20 01:38:25;;;;;;;;;;;3.70;99.90;;;2.80;100.00;97637.53;5018558;28;1455;-70
2023/12/20 01:40:52;;;;;;;;;;;3.70;99.90;;;2.84;100.00;97657.97;5021899;28;3213;-69
2023/12/20 01:43:18;;;;;;;;;;;3.60;99.90;;;2.87;100.00;97645.16;5017759;28;1455;-69
2023/12/20 01:45:47;;;;;;;;;;;3.60;99.90;;;2.82;100.00;97659.72;5021795;28;1408;-69
2023/12/20 01:48:14;;;;;;;;;;;3.60;99.90;;;2.82;100.00;97651.19;5021809;28;1329;-70
2023/12/20 01:50:43;;;;;;;;;;;3.70;99.90;;;2.86;100.00;97653.69;5018869;28;1468;-70
2023/12/20 01:53:12;;;;;;;;;;;3.60;99.90;;;2.89;100.00;97640.00;5023292;28;1576;-70
2023/12/20 01:55:40;;;;;;;;;;;3.70;99.90;;;2.85;100.00;97635.75;5036602;28;2038;-70
2023/12/20 01:58:08;;;;;;;;;;;3.70;99.90;;;2.86;100.00;97633.19;5050673;28;1484;-69
2023/12/20 02:00:36;;;;;;;;;;;3.60;99.90;;;2.87;100.00;97639.16;5019774;28;1634;-69
2023/12/20 02:03:04;;;;;;;;;;;3.70;99.90;;;2.95;100.00;97654.47;5035754;28;1587;-69
2023/12/20 02:05:31;;;;;;;;;;;3.70;99.90;;;2.95;100.00;97673.25;5024526;28;1779;-70
2023/12/20 02:07:58;;;;;;;;;;;3.70;99.90;;;2.99;100.00;97668.94;5019070;28;1473;-69
2023/12/20 02:10:25;;;;;;;;;;;3.70;99.90;;;2.95;100.00;97672.41;5039266;28;2366;-69
2023/12/20 02:12:52;;;;;;;;;;;3.70;99.90;;;2.89;100.00;97622.03;5019592;28;1495;-70
2023/12/20 02:15:19;;;;;;;;;;;3.70;99.90;;;3.01;100.00;97649.25;5019243;28;2134;-70
2023/12/20 02:17:47;;;;;;;;;;;3.70;99.90;;;2.92;100.00;97652.78;5032369;28;1476;-69
2023/12/20 02:20:14;;;;;;;;;;;3.70;99.90;;;2.87;100.00;97642.59;5018745;28;1516;-69
2023/12/20 02:22:41;;;;;;;;;;;3.80;99.90;;;2.93;100.00;97645.06;5018479;28;3188;-70
2023/12/20 02:25:08;;;;;;;;;;;3.80;99.90;;;3.01;100.00;97645.00;5018942;28;1607;-70
2023/12/20 02:27:35;;;;;;;;;;;3.70;99.90;;;3.00;100.00;97624.50;5019535;28;1477;-70
2023/12/20 02:30:03;;;;;;;;;;;3.80;99.90;;;2.92;100.00;97638.25;5018490;28;1500;-70
2023/12/20 02:32:30;;;;;;;;;;;3.80;99.90;;;2.98;100.00;97639.88;5020135;28;1339;-70
2023/12/20 02:34:57;;;;;;;;;;;3.80;99.90;;;2.96;100.00;97633.91;5025189;28;1457;-71
2023/12/20 02:37:24;;;;;;;;;;;3.80;99.90;;;2.98;100.00;97646.72;5022846;28;2005;-70
2023/12/20 02:39:51;;;;;;;;;;;3.80;99.90;;;3.01;100.00;97641.56;5021170;28;1455;-71
2023/12/20 02:42:18;;;;;;;;;;;3.90;99.90;;;2.96;100.00;97636.47;5019958;28;1452;-70
2023/12/20 02:44:45;;;;;;;;;;;;;;;3.03;100.00;97632.97;5021126;28;1559;-70
2023/12/20 02:47:12;;;;;;;;;;;3.80;99.90;;;3.05;100.00;97636.38;5021339;28;1709;-70
2023/12/20 02:49:39;;;;;;;;;;;3.80;99.90;;;3.03;100.00;97629.56;5020593;28;1548;-70
2023/12/20 02:52:06;;;;;;;;;;;3.90;99.90;;;3.03;100.00;97638.09;5022486;28;2019;-70
2023/12/20 02:54:33;;;;;;;;;;;3.80;99.90;;;3.06;100.00;97644.94;5019543;28;1429;-70
2023/12/20 02:56:59;;;;;;;;;;;3.80;99.90;;;3.12;100.00;97644.84;5019754;28;1938;-71
2023/12/20 02:59:26;;;;;;;;;;;3.80;99.90;;;3.19;100.00;97653.31;5023391;28;1453;-71
2023/12/20 03:01:53;;;;;;;;;;;3.80;99.90;;;3.11;100.00;97656.00;5021005;28;1486;-70
2023/12/20 03:04:20;;;;;;;;;;;3.80;99.90;;;3.21;100.00;97661.84;5018193;28;1540;-70
2023/12/20 03:06:47;;;;;;;;;;;3.80;99.90;;;3.07;100.00;97655.16;5016081;28;3582;-69
2023/12/20 03:09:14;;;;;;;;;;;3.80;99.90;;;3.14;100.00;97646.53;5017682;28;1528;-70
2023/12/20 03:11:41;;;;;;;;;;;3.90;99.90;;;3.13;100.00;97644.84;5015729;28;1480;-70
2023/12/20 03:14:09;;;;;;;;;;;3.90;99.90;;;3.12;100.00;97649.97;5016376;28;1602;-70
2023/12/20 03:16:35;;;;;;;;;;;4.00;99.90;;;3.21;100.00;97655.00;5016298;28;1918;-70
2023/12/20 03:19:03;;;;;;;;;;;4.00;99.90;;;3.31;100.00;97648.06;5013889;28;2066;-70
2023/12/20 03:21:30;;;;;;;;;;;4.00;99.90;;;3.18;100.00;97657.59;5016287;28;1568;-70
2023/12/20 03:23:57;;;;;;;;;;;4.00;99.90;;;3.17;100.00;97644.78;5021937;28;1528;-70
2023/12/20 03:26:24;;;;;;;;;;;4.00;99.90;;;3.13;100.00;97642.28;5022574;28;1430;-69
2023/12/20 03:28:51;;;;;;;;;;;4.00;99.90;;;3.26;100.00;97648.13;5017303;28;1584;-70
2023/12/20 03:31:19;;;;;;;;;;;4.00;99.90;;;3.30;100.00;97643.78;5015074;28;1682;-70
2023/12/20 03:33:46;;;;;;;;;;;4.00;99.90;;;3.32;100.00;97648.03;5019326;28;2163;-70
2023/12/20 03:36:13;;;;;;;;;;;4.00;99.90;;;3.40;100.00;97653.06;5018520;28;1985;-71
2023/12/20 03:38:40;;;;;;;;;;;4.00;99.90;;;3.41;100.00;97659.88;5001878;28;1680;-70
2023/12/20 03:41:07;;;;;;;;;;;4.10;99.90;;;3.33;100.00;97670.25;5032199;28;1733;-70
2023/12/20 03:43:34;;;;;;;;;;;4.10;99.90;;;3.35;100.00;97655.69;5031409;28;1655;-70
2023/12/20 03:46:03;;;;;;;;;;;4.10;99.90;;;3.45;100.00;97659.00;5021393;28;1456;-70
2023/12/20 03:48:31;;;;;;;;;;;4.10;99.90;;;3.37;100.00;97668.50;5030888;28;3170;-70
2023/12/20 03:50:58;;;;;;;;;;;4.10;99.90;;;3.35;100.00;97662.53;5022998;28;1376;-69
2023/12/20 03:53:24;;;;;;;;;;;4.10;99.90;;;3.41;100.00;97662.47;5037899;28;1383;-70
2023/12/20 03:55:51;;;;;;;;;;;4.10;99.90;;;3.37;100.00;97668.50;5019845;28;1980;-70
2023/12/20 03:58:18;;;;;;;;;;;4.10;99.90;;;3.45;100.00;97673.53;5016946;28;5369;-70
2023/12/20 04:00:45;;;;;;;;;;;4.20;99.90;;;3.54;100.00;97671.69;5019348;28;2051;-70
2023/12/20 04:03:15;;;;;;;;;;;4.20;99.90;;;3.46;100.00;97663.25;5016856;28;1570;-70
2023/12/20 04:05:41;;;;;;;;;;;4.20;99.90;;;3.43;100.00;97678.69;5020766;28;1285;-70
2023/12/20 04:08:09;;;;;;;;;;;4.20;99.90;;;3.51;100.00;97676.00;5017045;28;1468;-71
2023/12/20 04:10:37;;;;;;;;;;;4.30;99.90;;;3.48;100.00;97669.19;5017872;28;1505;-70
2023/12/20 04:13:04;;;;;;;;;;;4.30;99.90;;;3.52;100.00;97659.75;5017018;28;1418;-70
2023/12/20 04:15:31;;;;;;;;;;;4.30;99.90;;;3.52;100.00;97659.75;5020258;28;2012;-70
2023/12/20 04:17:58;;;;;;;;;;;4.30;99.90;;;3.55;100.00;97660.53;5019781;28;1637;-70
2023/12/20 04:20:25;;;;;;;;;;;4.30;99.90;;;3.61;100.00;97666.50;5019057;28;1415;-71
2023/12/20 04:22:52;;;;;;;;;;;4.40;99.90;;;3.64;100.00;97669.00;5016169;28;1485;-70
2023/12/20 04:25:19;;;;;;;;;;;4.40;99.90;;;3.66;100.00;97672.41;5030908;28;1893;-70
2023/12/20 04:27:46;;;;;;;;;;;4.40;99.90;;;3.66;100.00;97678.38;5019454;28;1416;-71
2023/12/20 04:30:16;;;;;;;;;;;4.40;99.90;;;3.77;100.00;97675.69;5018291;28;3294;-69
2023/12/20 04:32:42;;;;;;;;;;;4.50;99.90;;;3.66;100.00;97680.94;5029845;28;1524;-70
2023/12/20 04:35:09;;;;;;;;;;;4.50;99.90;;;3.75;100.00;97683.38;5018020;28;1698;-70
2023/12/20 04:37:36;;;;;;;;;;;4.50;99.90;;;3.72;100.00;97692.88;5020293;28;1902;-70
2023/12/20 04:40:05;;;;;;;;;;;4.50;99.90;;;3.80;100.00;97693.59;5029208;28;1487;-71
2023/12/20 04:42:32;;;;;;;;;;;4.60;99.90;;;3.80;100.00;97700.47;5019891;28;1610;-70
2023/12/20 04:44:59;;;;;;;;;;;4.60;99.90;;;3.87;100.00;97699.50;5022407;28;1987;-71
2023/12/20 04:47:26;;;;;;;;;;;4.60;99.90;;;3.83;100.00;97697.84;5020647;28;1496;-71
2023/12/20 04:49:53;;;;;;;;;;;4.70;99.90;;;3.93;100.00;97691.72;5018416;28;1401;-70
2023/12/20 04:52:20;;;;;;;;;;;4.70;99.90;;;4.14;100.00;97686.25;5014603;28;1725;-71
2023/12/20 04:54:47;;;;;;;;;;;4.70;99.90;;;4.05;100.00;97678.69;5030998;28;1646;-70
2023/12/20 04:57:13;;;;;;;;;;;4.70;99.90;;;4.05;100.00;97688.13;5017485;28;5154;-71
2023/12/20 04:59:41;;;;;;;;;;;4.80;99.90;;;4.14;100.00;97701.66;5020325;28;1350;-70
2023/12/20 05:02:08;;;;;;;;;;;4.80;99.90;;;4.25;100.00;97706.66;5017270;28;1458;-70
2023/12/20 05:04:35;;;;;;;;;;;4.80;99.90;;;4.08;100.00;97708.59;5030097;28;1541;-70
2023/12/20 05:07:04;;;;;;;;;;;4.90;99.90;;;4.21;100.00;97709.28;5020190;28;1450;-71
2023/12/20 05:09:32;;;;;;;;;;;4.80;99.90;;;4.16;100.00;97715.34;5014321;28;1540;-71
2023/12/20 05:11:59;;;;;;;;;;;4.80;99.90;;;4.08;100.00;97708.59;5021233;28;3101;-71
2023/12/20 05:14:25;;;;;;;;;;;4.80;99.90;;;4.00;100.00;97715.59;5021326;28;1806;-70
2023/12/20 05:16:52;;;;;;;;;;;4.80;99.90;;;3.92;100.00;97725.94;5023196;28;1911;-71
2023/12/20 05:19:19;;;;;;;;;;;4.70;99.90;;;4.02;100.00;97736.97;5018817;28;1505;-71
2023/12/20 05:21:46;;;;;;;;;;;4.70;99.90;;;3.94;100.00;97735.34;5020925;28;1493;-69
2023/12/20 05:24:13;;;;;;;;;;;4.70;99.90;;;3.80;100.00;97744.94;5018378;28;1438;-70
2023/12/20 05:26:40;;;;;;;;;;;4.70;99.90;;;3.84;100.00;97751.75;5020587;28;2027;-70
2023/12/20 05:29:07;;;;;;;;;;;4.60;99.90;;;3.78;100.00;97755.22;5023194;28;1791;-70
2023/12/20 05:31:34;;;;;;;;;;;4.60;99.90;;;3.75;100.00;97770.69;5020105;28;1404;-70
2023/12/20 05:34:00;;;;;;;;;;;4.60;99.90;;;3.85;100.00;97778.28;5016839;28;1625;-70
2023/12/20 05:36:28;;;;;;;;;;;4.60;99.90;;;3.74;100.00;97788.66;5022336;28;1910;-70
2023/12/20 05:38:55;;;;;;;;;;;4.50;99.90;;;3.68;100.00;97801.59;5024349;28;1546;-70
2023/12/20 05:41:22;;;;;;;;;;;4.50;99.90;;;3.71;100.00;97812.66;5037846;28;2639;-71
2023/12/20 05:43:49;;;;;;;;;;;4.50;99.90;;;3.73;100.00;97823.75;5021210;28;1476;-70
2023/12/20 05:46:16;;;;;;;;;;;4.50;99.90;;;3.96;100.00;97827.78;5021556;28;1488;-71
2023/12/20 05:48:43;;;;;;;;;;;4.60;99.90;;;3.92;100.00;97816.72;5022155;28;1508;-70
2023/12/20 05:51:11;;;;;;;;;;;4.70;99.90;;;3.97;100.00;97824.34;5019331;28;1487;-70
2023/12/20 05:53:38;;;;;;;;;;;4.70;99.90;;;4.06;100.00;97831.94;5020927;28;3100;-70
2023/12/20 05:56:05;;;;;;;;;;;4.70;99.90;;;4.00;100.00;97821.75;5018793;28;2017;-70
2023/12/20 05:58:33;;;;;;;;;;;4.70;99.90;;;3.90;100.00;97836.41;5018544;28;5088;-70
2023/12/20 06:01:00;;;;;;;;;;;4.70;99.90;;;4.08;100.00;97821.63;5021410;28;1821;-70
2023/12/20 06:03:27;;;;;;;;;;;4.70;99.90;;;4.13;100.00;97825.84;5024250;28;1525;-70
2023/12/20 06:05:54;;;;;;;;;;;4.80;99.90;;;4.17;100.00;97816.38;5035985;28;1488;-70
2023/12/20 06:08:39;;;;;;;;;;;4.80;99.90;;;4.05;100.00;97816.53;5018661;28;1399;-71
2023/12/20 06:11:05;;;;;;;;;;;4.80;99.90;;;3.90;100.00;97820.13;5022280;28;1528;-69
2023/12/20 06:13:32;;;;;;;;;;;4.70;99.90;;;3.81;100.00;97821.13;5025204;28;1473;-69
2023/12/20 06:15:59;;;;;;;;;;;4.70;99.90;;;3.85;100.00;97824.47;5016602;28;1413;-70
2023/12/20 06:18:26;;;;;;;;;;;4.60;99.90;;;3.73;100.00;97820.34;5023068;28;2001;-70
2023/12/20 06:20:53;;;;;;;;;;;4.60;99.90;;;3.90;100.00;97828.72;5025006;28;1310;-70
2023/12/20 06:23:20;;;;;;;;;;;4.50;99.90;;;3.95;100.00;97832.06;5033086;28;1613;-69
2023/12/20 06:25:46;;;;;;;;;;;4.50;99.90;;;3.76;100.00;97838.28;5020656;28;1653;-70
2023/12/20 06:28:14;;;;;;;;;;;4.50;99.90;;;3.85;100.00;97838.16;5020565;28;1675;-70
2023/12/20 06:30:41;;;;;;;;;;;4.50;99.90;;;3.78;100.00;97849.38;5034546;28;1532;-70
2023/12/20 06:33:09;;;;;;;;;;;4.50;99.90;;;3.60;100.00;97849.59;5020457;28;1568;-70
2023/12/20 06:35:36;;;;;;;;;;;4.50;99.90;;;3.48;100.00;97848.00;5034143;28;1621;-70
2023/12/20 06:38:03;;;;;;;;;;;4.40;99.90;;;3.60;100.00;97842.72;5019611;28;1906;-72
2023/12/20 06:40:30;;;;;;;;;;;4.40;99.90;;;3.37;100.00;97837.81;5033802;28;3088;-70
2023/12/20 06:42:57;;;;;;;;;;;4.30;99.90;;;3.29;100.00;97837.91;5021748;28;1408;-71
2023/12/20 06:45:37;;;;;;;;;;;4.20;99.90;;;3.34;100.00;97837.88;5021228;28;1671;-70
2023/12/20 06:48:05;;;;;;;;;;;4.10;99.90;;;3.26;100.00;97855.91;5019848;28;1950;-70
2023/12/20 06:50:32;;;;;;;;;;;4.10;99.90;;;3.38;100.00;97859.22;5017725;28;1704;-70
2023/12/20 06:52:59;;;;;;;;;;;4.00;99.90;;;3.32;100.00;97863.53;5021950;28;1435;-70
2023/12/20 06:55:26;;;;;;;;;;;4.00;99.90;;;3.33;100.00;97864.38;5019688;28;1545;-70
2023/12/20 06:57:53;;;;;;;;;;;4.10;99.90;;;3.21;100.00;97852.50;5016782;28;5195;-70
2023/12/20 07:00:20;;;;;;;;;;;4.00;99.90;;;3.33;100.00;97846.41;5034036;28;1483;-70
2023/12/20 07:02:47;;;;;;;;;;;4.00;99.90;;;3.20;100.00;97845.69;5019217;28;1467;-71
2023/12/20 07:05:17;;;;;;;;;;;4.10;99.90;;;3.26;100.00;97850.78;5021779;28;2367;-70
2023/12/20 07:07:44;;;;;;;;;;;4.00;99.90;;;3.27;100.00;97854.19;5020554;28;1321;-71
2023/12/20 07:10:11;;;;;;;;;;;4.00;99.90;;;3.31;100.00;97866.13;5019380;28;1076;-70
2023/12/20 07:12:38;;;;;;;;;;;3.90;99.90;;;3.34;100.00;97871.22;5019719;28;1398;-69
2023/12/20 07:15:07;;;;;;;;;;;3.90;99.90;;;3.20;100.00;97863.66;5030794;28;1250;-70
2023/12/20 07:17:34;;;;;;;;;;;3.90;99.90;;;3.25;100.00;97864.44;5018801;28;2255;-70
2023/12/20 07:20:03;;;;;;;;;;;3.90;99.90;;;3.18;100.00;97878.19;5017934;28;1259;-70
2023/12/20 07:22:31;;;;;;;;;;;4.00;99.90;;;3.24;100.00;97869.59;5018575;28;1520;-70
2023/12/20 07:24:59;;;;;;;;;;;3.90;99.90;;;3.24;100.00;97874.72;5016468;28;1301;-70
2023/12/20 07:27:26;;;;;;;;;;;3.90;99.90;;;3.19;100.00;97863.66;5031219;28;1324;-71
2023/12/20 07:29:53;;;;;;;;;;;3.80;99.90;;;2.96;100.00;97862.13;5019833;28;1223;-70
2023/12/20 07:32:20;;;;;;;;;;;3.90;99.90;;;3.22;100.00;97871.34;5019345;28;1293;-70
2023/12/20 07:34:47;;;;;;;;;;;3.90;99.90;;;3.15;100.00;97867.97;5017533;28;1309;-70
2023/12/20 07:37:14;;;;;;;;;;;3.90;99.90;;;3.00;100.00;97879.19;5018943;28;2007;-70
2023/12/20 07:39:42;;;;;;;;;;;3.90;99.90;;;3.17;100.00;97898.72;5024443;28;1342;-70
2023/12/20 07:42:09;;;;;;;;;;;3.90;99.90;;;3.09;100.00;97894.50;5006348;28;1462;-71
2023/12/20 07:44:35;;;;;;;;;;;3.80;99.90;;;3.19;100.00;97902.13;5017806;28;1819;-69
2023/12/20 07:47:02;;;;;;;;;;;3.90;99.90;;;3.13;100.00;97903.88;5019418;28;1274;-71
2023/12/20 07:49:30;;;;;;;;;;;3.80;99.90;;;3.17;100.00;97903.84;5019281;28;1387;-70
2023/12/20 07:51:57;;;;;;;;;;;3.80;99.90;;;3.19;100.00;97918.38;5016289;28;1357;-69
2023/12/20 07:54:24;;;;;;;;;;;3.90;99.90;;;3.06;100.00;97912.50;5019818;28;1294;-70
2023/12/20 07:56:51;;;;;;;;;;;3.90;99.90;;;3.08;100.00;97910.78;5018332;28;5170;-70
2023/12/20 07:59:18;;;;;;;;;;;3.80;99.90;;;2.95;100.00;97921.13;5019850;28;3089;-70
2023/12/20 08:01:58;;;;;;;;;;;3.80;99.90;;;3.09;100.00;97921.88;5015797;28;1349;-70
2023/12/20 08:04:25;;;;;;;;;;;3.80;99.90;;;3.04;100.00;97934.72;5018878;28;1474;-70
2023/12/20 08:06:52;;;;;;;;;;;3.80;99.90;;;3.04;100.00;97944.16;5028057;28;1464;-71
2023/12/20 08:09:19;;;;;;;;;;;3.70;99.90;;;2.97;100.00;97934.78;5032379;28;1422;-71
2023/12/20 08:11:47;;;;;;;;;;;3.70;99.90;;;2.92;100.00;97945.09;5018006;28;1544;-70
2023/12/20 08:14:15;;;;;;;;;;;3.80;99.90;;;2.97;100.00;97963.84;5017778;28;1344;-71
2023/12/20 08:16:42;;;;;;;;;;;3.70;99.90;;;3.07;100.00;97954.38;5014805;28;2030;-70
2023/12/20 08:19:09;;;;;;;;;;;3.70;99.90;;;3.01;100.00;97957.84;5021053;28;1396;-71
2023/12/20 08:21:38;;;;;;;;;;;3.80;99.90;;;3.07;100.00;97960.34;5032429;28;1378;-70
2023/12/20 08:24:05;;;;;;;;;;;3.70;99.90;;;3.10;100.00;97968.03;5020531;28;1599;-71
2023/12/20 08:26:32;;;;;;;;;;;3.70;99.90;;;2.93;100.00;97980.94;5018445;28;1474;-70
2023/12/20 08:28:59;;;;;;;;;;;3.70;99.90;;;3.04;100.00;97957.81;5031326;28;1363;-70
2023/12/20 08:31:28;;;;;;;;;;;3.80;99.90;;;3.02;100.00;97962.09;5018344;28;1465;-70
2023/12/20 08:33:55;;;;;;;;;;;3.70;99.90;;;3.01;100.00;97967.22;5016182;28;1830;-69
2023/12/20 08:36:23;;;;;;;;;;;3.70;99.90;;;2.82;100.00;97964.78;5015080;28;1672;-70
2023/12/20 08:38:50;;;;;;;;;;;3.70;99.90;;;2.90;100.00;97960.47;5015136;28;1918;-70
2023/12/20 08:41:17;;;;;;;;;;;3.70;99.90;;;3.00;100.00;97955.28;5048063;28;1555;-70
2023/12/20 08:43:45;;;;;;;;;;;3.70;99.90;;;2.87;100.00;97959.63;5016275;28;1514;-70
2023/12/20 08:46:14;;;;;;;;;;;3.70;99.90;;;2.92;100.00;97958.75;5029768;28;1558;-71
2023/12/20 08:48:41;;;;;;;;;;;3.70;99.90;;;3.09;100.00;97973.16;5017808;28;1412;-70
2023/12/20 08:51:09;;;;;;;;;;;3.80;99.90;;;3.04;100.00;97970.63;5020850;28;1435;-70
2023/12/20 08:53:39;;;;;;;;;;;3.80;99.90;;;3.16;100.00;97984.25;5024990;28;1325;-71
2023/12/20 08:56:06;;;;;;;;;;;3.80;99.90;;;3.19;100.00;97969.66;5022232;28;1294;-70
2023/12/20 08:58:35;;;;;;;;;;;3.90;99.90;;;3.22;100.00;97974.81;5025112;28;1910;-70
2023/12/20 09:01:03;;;;;;;;;;;3.90;99.90;;;3.38;100.00;97987.53;5024239;28;1122;-69
2023/12/20 09:03:30;;;;;;;;;;;4.00;99.90;;;3.51;100.00;97978.84;5021717;28;1295;-71
2023/12/20 09:05:57;;;;;;;;;;;4.10;99.90;;;3.49;100.00;97968.63;5018225;28;1195;-70
2023/12/20 09:08:24;;;;;;;;;;;4.20;99.90;;;3.66;100.00;97967.63;5022067;28;2024;-71
2023/12/20 09:10:51;;;;;;;;;;;4.20;99.90;;;3.63;100.00;97958.22;5020210;28;1252;-71
2023/12/20 09:13:18;;;;;;;;;;;4.40;99.90;;;3.71;100.00;97960.72;5019192;28;1377;-71
2023/12/20 09:15:45;;;;;;;;;;;4.40;99.90;;;3.91;100.00;97975.94;5022102;28;1289;-71
2023/12/20 09:18:12;;;;;;;;;;;4.40;99.90;;;3.94;100.00;97983.59;5020520;28;1926;-71
2023/12/20 09:20:39;;;;;;;;;;;4.50;99.90;;;4.00;100.00;97982.72;5023448;28;1448;-70
2023/12/20 09:23:10;;;;;;;;;;;4.60;99.90;;;4.04;100.00;97982.66;5023825;28;1433;-72
2023/12/20 09:25:36;;;;;;;;;;;4.60;99.90;;;4.07;100.00;97989.50;5021224;28;1493;-70
2023/12/20 09:28:04;;;;;;;;;;;4.60;99.90;;;4.08;100.00;97976.63;5035799;28;1333;-70
2023/12/20 09:30:31;;;;;;;;;;;4.70;99.90;;;4.02;100.00;97979.25;5034485;28;1307;-70
2023/12/20 09:32:58;;;;;;;;;;;4.70;99.90;;;4.18;100.00;97978.22;5021182;28;1315;-71
2023/12/20 09:35:25;;;;;;;;;;;4.80;99.90;;;4.03;100.00;97987.81;5022557;28;1237;-70
2023/12/20 09:37:53;;;;;;;;;;;4.70;99.90;;;4.11;100.00;97980.88;5018825;28;1918;-70
2023/12/20 09:40:20;;;;;;;;;;;4.90;99.90;;;4.12;100.00;97992.84;5036901;28;1988;-71
2023/12/20 09:42:50;;;;;;;;;;;4.90;99.90;;;4.05;100.00;98001.50;5018298;28;1248;-69
2023/12/20 09:45:20;;;;;;;;;;;4.90;99.90;;;4.18;100.00;97998.78;5034791;28;1757;-71
2023/12/20 09:47:47;;;;;;;;;;;4.80;99.90;;;4.27;100.00;97990.13;5020973;28;1524;-71
2023/12/20 09:50:14;;;;;;;;;;;4.90;99.90;;;4.21;100.00;98008.16;5037108;28;1362;-70
2023/12/20 09:52:42;;;;;;;;;;;4.80;99.90;;;4.39;100.00;97997.69;5021112;28;1334;-71
2023/12/20 09:55:09;;;;;;;;;;;4.80;99.90;;;4.38;100.00;97997.72;5040393;28;1369;-71
2023/12/20 09:57:37;;;;;;;;;;;4.80;99.90;;;4.17;100.00;97991.06;5034433;28;5155;-70
2023/12/20 10:00:04;;;;;;;;;;;4.80;99.90;;;3.89;100.00;97998.22;5018099;28;1356;-70
2023/12/20 10:02:32;;;;;;;;;;;4.90;99.90;;;4.04;100.00;97990.38;5036490;28;1434;-70
2023/12/20 10:04:59;;;;;;;;;;;4.80;99.90;;;3.96;100.00;97985.28;5023472;28;1503;-70
2023/12/20 10:07:26;;;;;;;;;;;4.70;99.90;;;3.87;100.00;97979.41;5043987;28;1580;-69
2023/12/20 10:09:55;;;;;;;;;;;4.80;99.90;;;4.08;100.00;97986.91;5022256;28;1531;-72
2023/12/20 10:12:22;;;;;;;;;;;4.80;99.90;;;4.22;100.00;97993.59;5020973;28;1410;-70
2023/12/20 10:14:49;;;;;;;;;;;4.60;99.90;;;4.25;100.00;98002.13;5021208;28;1099;-71
2023/12/20 10:17:16;;;;;;;;;;;4.70;99.90;;;4.06;100.00;97992.91;5022852;28;1955;-70
2023/12/20 10:19:43;;;;;;;;;;;4.70;99.90;;;3.92;100.00;97996.47;5018112;28;882;-70
2023/12/20 10:22:10;;;;;;;;;;;4.70;99.90;;;4.01;100.00;97998.09;5022461;28;1726;-70
2023/12/20 10:24:37;;;;;;;;;;;4.70;99.90;;;3.97;100.00;97986.16;5023940;28;1239;-71
2023/12/20 10:27:05;;;;;;;;;;;4.70;99.90;;;3.93;100.00;97989.63;5017121;28;1358;-70
2023/12/20 10:29:35;;;;;;;;;;;4.80;99.90;;;3.96;100.00;97975.00;5017814;28;1009;-71
2023/12/20 10:32:24;;;;;;;;;;;4.70;99.90;;;4.17;100.00;97983.38;5017977;28;1351;-70
2023/12/20 10:34:53;;;;;;;;;;;4.70;99.90;;;4.21;100.00;97992.75;5020411;28;913;-71
2023/12/20 10:37:20;;;;;;;;;;;4.70;99.90;;;3.92;100.00;97988.78;5024125;28;2000;-70
2023/12/20 10:39:52;;;;;;;;;;;4.80;99.90;;;4.14;100.00;97991.13;5035103;28;1534;-67
2023/12/20 10:42:22;;;;;;;;;;;4.70;99.90;;;4.10;100.00;97998.00;5024432;28;1560;-69
2023/12/20 10:44:49;;;;;;;;;;;4.80;99.90;;;4.09;100.00;97977.47;5018929;28;1404;-70
2023/12/20 10:47:17;;;;;;;;;;;4.90;99.90;;;4.06;100.00;97975.78;5021379;28;1383;-72
2023/12/20 10:49:44;;;;;;;;;;;4.90;99.90;;;4.19;100.00;97968.78;5016717;28;3284;-70
2023/12/20 10:52:12;;;;;;;;;;;4.90;99.90;;;4.22;100.00;97971.34;5016272;28;1399;-71
2023/12/20 10:54:41;;;;;;;;;;;4.80;99.90;;;4.17;100.00;97973.97;5018359;28;1795;-70
2023/12/20 10:57:08;;;;;;;;;;;4.90;99.90;;;4.16;100.00;97959.41;5024141;28;5278;-70
2023/12/20 10:59:37;;;;;;;;;;;4.90;99.90;;;4.06;100.00;97960.38;5018386;28;1983;-70
2023/12/20 11:02:07;;;;;;;;;;;4.80;99.90;;;4.18;100.00;97974.81;5018353;28;1367;-70
2023/12/20 11:05:08;;;;;;;;;;;4.80;99.90;;;4.10;100.00;97972.31;5017786;28;1084;-70
2023/12/20 11:07:40;;;;;;;;;;;4.80;99.90;;;4.24;100.00;97982.44;5017110;28;2440;-70
2023/12/20 11:10:12;;;;;;;;;;;4.80;99.90;;;4.16;100.00;97976.53;5033802;28;1046;-70
2023/12/20 11:12:51;;;;;;;;;;;4.90;99.90;;;4.21;100.00;97968.78;5030626;28;1292;-70
2023/12/20 11:15:19;;;;;;;;;;;4.80;99.90;;;4.22;100.00;97965.34;5021126;28;1325;-70
2023/12/20 11:17:46;;;;;;;;;;;4.90;99.90;;;4.45;100.00;97967.63;5020435;28;2023;-70
2023/12/20 11:20:18;;;;;;;;;;;5.00;99.90;;;4.44;100.00;97950.53;5016245;28;1085;-70
2023/12/20 11:22:55;;;;;;;;;;;5.00;99.90;;;4.35;100.00;97956.63;5019105;28;1387;-71
2023/12/20 11:25:22;;;;;;;;;;;4.90;99.90;;;4.42;100.00;97960.81;5020296;28;1336;-70
2023/12/20 11:28:07;;;;;;;;;;;4.90;99.90;;;4.40;100.00;97959.97;5019242;28;1392;-70
2023/12/20 11:30:47;;;;;;;;;;;4.90;99.90;;;4.34;100.00;97957.50;5018925;28;1016;-70
2023/12/20 11:33:16;;;;;;;;;;;5.00;99.90;;;4.46;100.00;97953.94;5016722;28;1381;-70
2023/12/20 11:35:45;;;;;;;;;;;5.00;99.90;;;4.26;100.00;97964.44;5017621;28;3117;-70